Terminal Aerodrome Forecast
Issued by NWS Wichita, KS

Home | Current Version | Previous Version | Graphics & Text | Print | Product List | Glossary On
Versions: 1 2 3 4 5 6 7 8 9 10 11 12 13 14 15
000
FTUS43 KICT 100522
TAFICT
TAF
KICT 100522Z 1006/1106 15005KT P6SM SCT150
     FM101300 15007KT P6SM BKN015
     FM101600 16015G22KT P6SM BKN018
     FM102100 17014G22KT P6SM SCT025 BKN035
     FM110000 17013KT P6SM SCT020=

USA.gov is the U.S. government's official web portal to all federal, state and local government web resources and services.